GIA284 WIII-WIPP
Flight info
| Callsign | GIA284 |
|---|---|
| Flight time | 0h 46m |
| Altitude | 30000 |
| Route | DOLTA W12 GUSKO |
| Aircraft | B738/M-SDE2E3FGHIRWXY/LB1 |
Departure
| Time | 2026-05-08 12:49 |
|---|---|
| Airport | Soekarno-Hatta International Airport (WIII) |
Arrival
| Time | 2026-05-08 13:36 |
|---|---|
| Airport | Sultan Mahmud Badaruddin II Airport (WIPP) |
| Time | Latitude | Longitude | Altitude | Speed | Heading |
|---|---|---|---|---|---|
| 2026-05-08 12:29 | -6.11725 | 106.66534 | 37 ft | 0 kts | 158° |
| 2026-05-08 12:39 | -6.11723 | 106.66533 | 37 ft | 0 kts | 158° |
| 2026-05-08 12:39 | -6.11708 | 106.66527 | 37 ft | 2 kts | 158° |
| 2026-05-08 12:39 | -6.11693 | 106.66521 | 37 ft | 2 kts | 158° |
| 2026-05-08 12:40 | -6.11677 | 106.66515 | 37 ft | 2 kts | 159° |
| 2026-05-08 12:40 | -6.11662 | 106.66509 | 35 ft | 2 kts | 161° |
| 2026-05-08 12:40 | -6.11652 | 106.66505 | 36 ft | 2 kts | 164° |
| 2026-05-08 12:40 | -6.11643 | 106.66503 | 35 ft | 0 kts | 172° |
| 2026-05-08 12:41 | -6.11634 | 106.66503 | 34 ft | 0 kts | 202° |
| 2026-05-08 12:41 | -6.11627 | 106.66506 | 35 ft | 2 kts | 238° |
| 2026-05-08 12:41 | -6.11625 | 106.66510 | 36 ft | 1 kts | 245° |
| 2026-05-08 12:41 | -6.11625 | 106.66511 | 36 ft | 0 kts | 246° |
| 2026-05-08 12:43 | -6.11625 | 106.66509 | 36 ft | 2 kts | 246° |
| 2026-05-08 12:43 | -6.11642 | 106.66466 | 37 ft | 11 kts | 252° |
| 2026-05-08 12:43 | -6.11589 | 106.66390 | 37 ft | 18 kts | 338° |
| 2026-05-08 12:43 | -6.11472 | 106.66344 | 37 ft | 18 kts | 338° |
| 2026-05-08 12:44 | -6.11364 | 106.66290 | 38 ft | 17 kts | 310° |
| 2026-05-08 12:44 | -6.11381 | 106.66176 | 38 ft | 19 kts | 248° |
| 2026-05-08 12:44 | -6.11434 | 106.66044 | 37 ft | 22 kts | 248° |
| 2026-05-08 12:44 | -6.11493 | 106.65895 | 37 ft | 24 kts | 248° |
| 2026-05-08 12:45 | -6.11557 | 106.65735 | 36 ft | 26 kts | 248° |
| 2026-05-08 12:45 | -6.11626 | 106.65564 | 37 ft | 27 kts | 248° |
| 2026-05-08 12:45 | -6.11696 | 106.65387 | 38 ft | 27 kts | 248° |
| 2026-05-08 12:45 | -6.11763 | 106.65219 | 38 ft | 25 kts | 248° |
| 2026-05-08 12:46 | -6.11825 | 106.65062 | 38 ft | 23 kts | 248° |
| 2026-05-08 12:46 | -6.11883 | 106.64914 | 38 ft | 22 kts | 248° |
| 2026-05-08 12:46 | -6.11941 | 106.64770 | 38 ft | 22 kts | 248° |
| 2026-05-08 12:46 | -6.11997 | 106.64630 | 38 ft | 21 kts | 248° |
| 2026-05-08 12:47 | -6.12052 | 106.64494 | 38 ft | 21 kts | 248° |
| 2026-05-08 12:47 | -6.12108 | 106.64355 | 38 ft | 23 kts | 248° |
| 2026-05-08 12:47 | -6.12172 | 106.64191 | 38 ft | 28 kts | 248° |
| 2026-05-08 12:47 | -6.12245 | 106.64009 | 38 ft | 27 kts | 248° |
| 2026-05-08 12:48 | -6.12219 | 106.63899 | 39 ft | 16 kts | 332° |
| 2026-05-08 12:48 | -6.12119 | 106.63921 | 40 ft | 16 kts | 34° |
| 2026-05-08 12:48 | -6.12052 | 106.64006 | 38 ft | 18 kts | 69° |
| 2026-05-08 12:48 | -6.11940 | 106.64291 | 39 ft | 81 kts | 68° |
| 2026-05-08 12:49 | -6.11642 | 106.65039 | 41 ft | 147 kts | 68° |
| 2026-05-08 12:49 | -6.11203 | 106.66158 | 237 ft | 185 kts | 69° |
| 2026-05-08 12:49 | -6.10768 | 106.67297 | 1313 ft | 167 kts | 66° |
| 2026-05-08 12:49 | -6.09987 | 106.68186 | 1846 ft | 185 kts | 29° |
| 2026-05-08 12:50 | -6.08765 | 106.68867 | 2143 ft | 214 kts | 30° |
| 2026-05-08 12:50 | -6.07403 | 106.69675 | 2406 ft | 237 kts | 31° |
| 2026-05-08 12:50 | -6.05949 | 106.70573 | 2762 ft | 258 kts | 32° |
| 2026-05-08 12:50 | -6.04395 | 106.71564 | 3388 ft | 268 kts | 33° |
| 2026-05-08 12:51 | -6.02823 | 106.72582 | 4255 ft | 270 kts | 33° |
| 2026-05-08 12:51 | -5.99533 | 106.74502 | 5886 ft | 279 kts | 15° |
| 2026-05-08 12:51 | -5.97595 | 106.74559 | 6674 ft | 284 kts | 347° |
| 2026-05-08 12:52 | -5.95835 | 106.73671 | 7408 ft | 288 kts | 317° |
| 2026-05-08 12:52 | -5.93814 | 106.70176 | 8892 ft | 296 kts | 293° |
| 2026-05-08 12:52 | -5.92974 | 106.68274 | 9685 ft | 299 kts | 294° |
| 2026-05-08 12:53 | -5.92114 | 106.66362 | 10364 ft | 303 kts | 294° |
| 2026-05-08 12:53 | -5.91211 | 106.64390 | 10795 ft | 317 kts | 294° |
| 2026-05-08 12:53 | -5.90270 | 106.62355 | 11369 ft | 325 kts | 295° |
| 2026-05-08 12:53 | -5.89310 | 106.60292 | 12053 ft | 328 kts | 295° |
| 2026-05-08 12:54 | -5.88339 | 106.58208 | 12738 ft | 331 kts | 295° |
| 2026-05-08 12:54 | -5.87357 | 106.56105 | 13413 ft | 335 kts | 295° |
| 2026-05-08 12:54 | -5.86364 | 106.53975 | 14030 ft | 338 kts | 295° |
| 2026-05-08 12:54 | -5.85360 | 106.51823 | 14615 ft | 342 kts | 295° |
| 2026-05-08 12:55 | -5.84346 | 106.49649 | 15188 ft | 346 kts | 295° |
| 2026-05-08 12:55 | -5.83320 | 106.47450 | 15770 ft | 349 kts | 295° |
| 2026-05-08 12:55 | -5.82299 | 106.45257 | 16340 ft | 353 kts | 294° |
| 2026-05-08 12:55 | -5.81239 | 106.42977 | 16913 ft | 357 kts | 294° |
| 2026-05-08 12:56 | -5.80200 | 106.40738 | 17476 ft | 361 kts | 294° |
| 2026-05-08 12:56 | -5.79135 | 106.38443 | 18032 ft | 364 kts | 294° |
| 2026-05-08 12:56 | -5.78060 | 106.36125 | 18529 ft | 368 kts | 294° |
| 2026-05-08 12:56 | -5.76976 | 106.33791 | 19033 ft | 370 kts | 294° |
| 2026-05-08 12:57 | -5.75884 | 106.31440 | 19546 ft | 372 kts | 294° |
| 2026-05-08 12:57 | -5.74782 | 106.29079 | 20050 ft | 375 kts | 297° |
| 2026-05-08 12:57 | -5.73266 | 106.26948 | 20506 ft | 378 kts | 316° |
| 2026-05-08 12:57 | -5.71139 | 106.25418 | 21009 ft | 378 kts | 330° |
| 2026-05-08 12:58 | -5.68845 | 106.24116 | 21517 ft | 380 kts | 332° |
| 2026-05-08 12:58 | -5.66516 | 106.22841 | 21981 ft | 383 kts | 332° |
| 2026-05-08 12:58 | -5.64168 | 106.21557 | 22448 ft | 386 kts | 332° |
| 2026-05-08 12:58 | -5.61805 | 106.20253 | 22850 ft | 388 kts | 332° |
| 2026-05-08 12:59 | -5.59445 | 106.18938 | 22845 ft | 388 kts | 332° |
| 2026-05-08 12:59 | -5.57088 | 106.17614 | 22867 ft | 388 kts | 332° |
| 2026-05-08 12:59 | -5.54734 | 106.16287 | 22873 ft | 389 kts | 332° |
| 2026-05-08 12:59 | -5.52369 | 106.14952 | 22874 ft | 389 kts | 332° |
| 2026-05-08 13:00 | -5.50011 | 106.13620 | 22875 ft | 390 kts | 332° |
| 2026-05-08 13:00 | -5.47646 | 106.12283 | 22878 ft | 390 kts | 332° |
| 2026-05-08 13:00 | -5.45282 | 106.10949 | 22871 ft | 390 kts | 332° |
| 2026-05-08 13:00 | -5.42950 | 106.09632 | 22934 ft | 393 kts | 332° |
| 2026-05-08 13:01 | -5.40533 | 106.08268 | 23367 ft | 395 kts | 332° |
| 2026-05-08 13:01 | -5.38146 | 106.06921 | 23858 ft | 393 kts | 332° |
| 2026-05-08 13:01 | -5.35758 | 106.05574 | 24287 ft | 394 kts | 332° |
| 2026-05-08 13:01 | -5.33367 | 106.04225 | 24655 ft | 396 kts | 332° |
| 2026-05-08 13:02 | -5.30952 | 106.02862 | 25006 ft | 399 kts | 332° |
| 2026-05-08 13:02 | -5.28526 | 106.01492 | 25359 ft | 402 kts | 332° |
| 2026-05-08 13:02 | -5.26083 | 106.00113 | 25727 ft | 404 kts | 332° |
| 2026-05-08 13:02 | -5.23631 | 105.98728 | 26093 ft | 406 kts | 332° |
| 2026-05-08 13:03 | -5.21163 | 105.97335 | 26451 ft | 408 kts | 332° |
| 2026-05-08 13:03 | -5.18683 | 105.95935 | 26800 ft | 410 kts | 332° |
| 2026-05-08 13:03 | -5.16200 | 105.94533 | 27145 ft | 412 kts | 332° |
| 2026-05-08 13:03 | -5.13686 | 105.93115 | 27489 ft | 415 kts | 332° |
| 2026-05-08 13:04 | -5.11167 | 105.91691 | 27824 ft | 417 kts | 332° |
| 2026-05-08 13:04 | -5.08637 | 105.90252 | 28154 ft | 419 kts | 332° |
| 2026-05-08 13:04 | -5.06100 | 105.88806 | 28478 ft | 421 kts | 332° |
| 2026-05-08 13:04 | -5.03542 | 105.87346 | 28794 ft | 423 kts | 332° |
| 2026-05-08 13:05 | -5.00976 | 105.85882 | 29119 ft | 425 kts | 332° |
| 2026-05-08 13:05 | -4.98397 | 105.84410 | 29429 ft | 428 kts | 332° |
| 2026-05-08 13:05 | -4.95809 | 105.82934 | 29733 ft | 430 kts | 332° |
| 2026-05-08 13:05 | -4.93201 | 105.81447 | 29882 ft | 433 kts | 332° |
| 2026-05-08 13:06 | -4.87888 | 105.78421 | 29882 ft | 445 kts | 332° |
| 2026-05-08 13:06 | -4.82437 | 105.75316 | 29889 ft | 456 kts | 332° |
| 2026-05-08 13:07 | -4.76867 | 105.72142 | 29879 ft | 465 kts | 332° |
| 2026-05-08 13:07 | -4.71193 | 105.68910 | 29879 ft | 473 kts | 332° |
| 2026-05-08 13:08 | -4.65473 | 105.65652 | 29880 ft | 479 kts | 332° |
| 2026-05-08 13:08 | -4.59644 | 105.62333 | 29872 ft | 484 kts | 332° |
| 2026-05-08 13:09 | -4.53754 | 105.58980 | 29875 ft | 489 kts | 332° |
| 2026-05-08 13:09 | -4.47818 | 105.55601 | 29867 ft | 493 kts | 332° |
| 2026-05-08 13:10 | -4.41967 | 105.52268 | 29846 ft | 467 kts | 332° |
| 2026-05-08 13:10 | -4.39193 | 105.50687 | 29842 ft | 451 kts | 332° |
| 2026-05-08 13:10 | -4.36512 | 105.49159 | 29847 ft | 436 kts | 332° |
| 2026-05-08 13:11 | -4.33917 | 105.47682 | 29723 ft | 425 kts | 333° |
| 2026-05-08 13:11 | -4.31365 | 105.46231 | 29422 ft | 418 kts | 333° |
| 2026-05-08 13:11 | -4.28841 | 105.44797 | 28975 ft | 416 kts | 333° |
| 2026-05-08 13:11 | -4.26338 | 105.43376 | 28626 ft | 411 kts | 333° |
| 2026-05-08 13:12 | -4.23858 | 105.41966 | 28201 ft | 409 kts | 333° |
| 2026-05-08 13:12 | -4.21393 | 105.40566 | 27797 ft | 406 kts | 332° |
| 2026-05-08 13:12 | -4.18947 | 105.39175 | 27392 ft | 403 kts | 332° |
| 2026-05-08 13:12 | -4.16515 | 105.37793 | 26992 ft | 401 kts | 332° |
| 2026-05-08 13:13 | -4.14092 | 105.36415 | 26593 ft | 399 kts | 332° |
| 2026-05-08 13:13 | -4.11688 | 105.35048 | 26196 ft | 397 kts | 332° |
| 2026-05-08 13:13 | -4.09291 | 105.33686 | 25796 ft | 395 kts | 332° |
| 2026-05-08 13:13 | -4.06903 | 105.32328 | 25393 ft | 394 kts | 332° |
| 2026-05-08 13:14 | -4.04522 | 105.30975 | 24979 ft | 393 kts | 332° |
| 2026-05-08 13:14 | -4.02152 | 105.29628 | 24583 ft | 392 kts | 332° |
| 2026-05-08 13:14 | -3.99779 | 105.28279 | 24176 ft | 391 kts | 332° |
| 2026-05-08 13:14 | -3.97419 | 105.26938 | 23778 ft | 390 kts | 332° |
| 2026-05-08 13:15 | -3.95126 | 105.25496 | 23488 ft | 387 kts | 325° |
| 2026-05-08 13:15 | -3.93006 | 105.23874 | 23242 ft | 382 kts | 323° |
| 2026-05-08 13:15 | -3.91631 | 105.22780 | 23071 ft | 379 kts | 323° |
| 2026-05-08 13:15 | -3.89571 | 105.21122 | 22825 ft | 382 kts | 323° |
| 2026-05-08 13:16 | -3.87491 | 105.19450 | 22578 ft | 386 kts | 323° |
| 2026-05-08 13:16 | -3.85384 | 105.17766 | 22335 ft | 388 kts | 323° |
| 2026-05-08 13:16 | -3.83277 | 105.16091 | 22074 ft | 385 kts | 323° |
| 2026-05-08 13:16 | -3.81187 | 105.14437 | 21753 ft | 381 kts | 323° |
| 2026-05-08 13:17 | -3.79112 | 105.12801 | 21383 ft | 378 kts | 323° |
| 2026-05-08 13:17 | -3.77052 | 105.11181 | 21006 ft | 376 kts | 323° |
| 2026-05-08 13:17 | -3.75000 | 105.09568 | 20628 ft | 374 kts | 323° |
| 2026-05-08 13:17 | -3.72960 | 105.07966 | 20249 ft | 372 kts | 323° |
| 2026-05-08 13:18 | -3.70925 | 105.06368 | 19863 ft | 371 kts | 323° |
| 2026-05-08 13:18 | -3.68895 | 105.04774 | 19475 ft | 370 kts | 323° |
| 2026-05-08 13:18 | -3.66870 | 105.03184 | 19081 ft | 370 kts | 323° |
| 2026-05-08 13:18 | -3.64848 | 105.01596 | 18695 ft | 369 kts | 323° |
| 2026-05-08 13:19 | -3.62828 | 105.00011 | 18306 ft | 369 kts | 323° |
| 2026-05-08 13:19 | -3.60813 | 104.98428 | 17892 ft | 368 kts | 323° |
| 2026-05-08 13:19 | -3.58801 | 104.96849 | 17485 ft | 366 kts | 323° |
| 2026-05-08 13:19 | -3.56803 | 104.95280 | 17101 ft | 364 kts | 323° |
| 2026-05-08 13:20 | -3.54815 | 104.93719 | 16716 ft | 362 kts | 323° |
| 2026-05-08 13:20 | -3.52836 | 104.92166 | 16339 ft | 360 kts | 323° |
| 2026-05-08 13:20 | -3.50873 | 104.90625 | 15966 ft | 358 kts | 323° |
| 2026-05-08 13:20 | -3.48921 | 104.89093 | 15599 ft | 356 kts | 323° |
| 2026-05-08 13:21 | -3.46978 | 104.87568 | 15231 ft | 354 kts | 323° |
| 2026-05-08 13:21 | -3.45044 | 104.86050 | 14856 ft | 352 kts | 323° |
| 2026-05-08 13:21 | -3.43122 | 104.84542 | 14468 ft | 348 kts | 323° |
| 2026-05-08 13:21 | -3.41239 | 104.83064 | 14108 ft | 339 kts | 323° |
| 2026-05-08 13:22 | -3.39405 | 104.81624 | 13762 ft | 331 kts | 323° |
| 2026-05-08 13:22 | -3.37617 | 104.80221 | 13380 ft | 323 kts | 323° |
| 2026-05-08 13:22 | -3.35870 | 104.78850 | 13022 ft | 315 kts | 323° |
| 2026-05-08 13:22 | -3.34166 | 104.77513 | 12676 ft | 308 kts | 323° |
| 2026-05-08 13:23 | -3.32476 | 104.76188 | 12366 ft | 311 kts | 323° |
| 2026-05-08 13:23 | -3.30761 | 104.74844 | 12044 ft | 316 kts | 323° |
| 2026-05-08 13:23 | -3.29038 | 104.73493 | 11708 ft | 322 kts | 323° |
| 2026-05-08 13:23 | -3.27266 | 104.72104 | 11362 ft | 324 kts | 322° |
| 2026-05-08 13:24 | -3.25494 | 104.70713 | 11013 ft | 323 kts | 322° |
| 2026-05-08 13:24 | -3.23727 | 104.69328 | 10671 ft | 322 kts | 322° |
| 2026-05-08 13:24 | -3.21970 | 104.67949 | 10379 ft | 319 kts | 322° |
| 2026-05-08 13:24 | -3.20252 | 104.66601 | 10268 ft | 309 kts | 322° |
| 2026-05-08 13:25 | -3.18585 | 104.65293 | 10134 ft | 301 kts | 322° |
| 2026-05-08 13:25 | -3.16958 | 104.64018 | 10013 ft | 293 kts | 322° |
| 2026-05-08 13:25 | -3.15359 | 104.62763 | 9739 ft | 292 kts | 322° |
| 2026-05-08 13:25 | -3.13767 | 104.61515 | 9444 ft | 290 kts | 322° |
| 2026-05-08 13:26 | -3.12179 | 104.60270 | 9146 ft | 289 kts | 322° |
| 2026-05-08 13:26 | -3.10599 | 104.59031 | 8844 ft | 288 kts | 322° |
| 2026-05-08 13:26 | -3.09025 | 104.57797 | 8562 ft | 287 kts | 322° |
| 2026-05-08 13:26 | -3.07458 | 104.56569 | 8269 ft | 286 kts | 322° |
| 2026-05-08 13:27 | -3.05895 | 104.55343 | 7983 ft | 285 kts | 322° |
| 2026-05-08 13:27 | -3.04338 | 104.54122 | 7696 ft | 284 kts | 322° |
| 2026-05-08 13:27 | -3.02785 | 104.52905 | 7402 ft | 283 kts | 322° |
| 2026-05-08 13:27 | -3.01235 | 104.51689 | 7116 ft | 283 kts | 322° |
| 2026-05-08 13:28 | -2.99691 | 104.50479 | 6825 ft | 282 kts | 322° |
| 2026-05-08 13:28 | -2.98150 | 104.49271 | 6539 ft | 281 kts | 322° |
| 2026-05-08 13:28 | -2.96607 | 104.48061 | 6234 ft | 281 kts | 322° |
| 2026-05-08 13:28 | -2.95069 | 104.46855 | 5929 ft | 281 kts | 322° |
| 2026-05-08 13:29 | -2.93530 | 104.45649 | 5626 ft | 279 kts | 322° |
| 2026-05-08 13:29 | -2.92022 | 104.44467 | 5323 ft | 272 kts | 322° |
| 2026-05-08 13:29 | -2.90508 | 104.43369 | 5036 ft | 268 kts | 334° |
| 2026-05-08 13:29 | -2.88716 | 104.42953 | 4764 ft | 266 kts | 2° |
| 2026-05-08 13:30 | -2.86926 | 104.43337 | 4498 ft | 263 kts | 21° |
| 2026-05-08 13:30 | -2.85225 | 104.43993 | 4263 ft | 260 kts | 22° |
| 2026-05-08 13:30 | -2.83562 | 104.44641 | 4138 ft | 252 kts | 22° |
| 2026-05-08 13:30 | -2.82039 | 104.45391 | 3992 ft | 237 kts | 43° |
| 2026-05-08 13:31 | -2.81270 | 104.46717 | 3897 ft | 213 kts | 84° |
| 2026-05-08 13:31 | -2.81394 | 104.48138 | 3826 ft | 203 kts | 101° |
| 2026-05-08 13:31 | -2.81668 | 104.49534 | 3791 ft | 209 kts | 104° |
| 2026-05-08 13:31 | -2.82048 | 104.50972 | 3538 ft | 215 kts | 106° |
| 2026-05-08 13:32 | -2.82503 | 104.52386 | 3279 ft | 212 kts | 110° |
| 2026-05-08 13:32 | -2.83039 | 104.53748 | 3021 ft | 209 kts | 112° |
| 2026-05-08 13:32 | -2.83595 | 104.55084 | 2749 ft | 207 kts | 112° |
| 2026-05-08 13:32 | -2.84139 | 104.56381 | 2493 ft | 197 kts | 112° |
| 2026-05-08 13:33 | -2.84652 | 104.57606 | 2247 ft | 186 kts | 112° |
| 2026-05-08 13:33 | -2.85134 | 104.58761 | 2027 ft | 173 kts | 112° |
| 2026-05-08 13:33 | -2.85583 | 104.59837 | 1789 ft | 164 kts | 111° |
| 2026-05-08 13:33 | -2.86010 | 104.60857 | 1630 ft | 153 kts | 111° |
| 2026-05-08 13:34 | -2.86413 | 104.61824 | 1402 ft | 149 kts | 111° |
| 2026-05-08 13:34 | -2.86817 | 104.62791 | 1224 ft | 153 kts | 111° |
| 2026-05-08 13:34 | -2.87230 | 104.63780 | 1008 ft | 154 kts | 112° |
| 2026-05-08 13:34 | -2.87634 | 104.64745 | 834 ft | 151 kts | 112° |
| 2026-05-08 13:35 | -2.88044 | 104.65728 | 658 ft | 155 kts | 111° |
| 2026-05-08 13:35 | -2.88468 | 104.66742 | 466 ft | 156 kts | 112° |
| 2026-05-08 13:35 | -2.88878 | 104.67729 | 243 ft | 155 kts | 112° |
| 2026-05-08 13:35 | -2.89289 | 104.68713 | 50 ft | 152 kts | 113° |
| 2026-05-08 13:36 | -2.89658 | 104.69583 | 16 ft | 107 kts | 112° |
| 2026-05-08 13:36 | -2.89861 | 104.70064 | 22 ft | 43 kts | 113° |
| 2026-05-08 13:36 | -2.89961 | 104.70302 | 23 ft | 36 kts | 112° |
| 2026-05-08 13:36 | -2.89978 | 104.70478 | 21 ft | 19 kts | 31° |
| 2026-05-08 13:37 | -2.89935 | 104.70497 | 22 ft | 0 kts | 23° |